Time;durP1;ratioP1;P1;durP2;ratioP2;P2;SDS_P1;SDS_P2;PMS_P1;PMS_P2;Temp;Humidity;BMP_temperature;BMP_pressure;BME280_temperature;BME280_humidity;BME280_pressure;Samples;Min_cycle;Max_cycle;Signal;HPM_P1;HPM_P2
2024/01/12 00:02:24;;;;;;;43.25;27.92;;;-1.50;99.90;;;;;;5041852;28;20212;-78
2024/01/12 00:04:53;;;;;;;41.33;26.00;;;-1.50;99.90;;;;;;5053175;28;20228;-83
2024/01/12 00:07:21;;;;;;;42.15;26.90;;;-1.60;99.90;;;;;;5053953;28;20197;-80
2024/01/12 00:09:49;;;;;;;35.13;23.48;;;-1.60;99.90;;;;;;5043840;28;20201;-79
2024/01/12 00:12:17;;;;;;;38.42;26.15;;;-1.60;99.90;;;;;;5040984;28;20457;-79
2024/01/12 00:14:46;;;;;;;38.58;25.55;;;-1.60;99.90;;;;;;5046026;28;20225;-78
2024/01/12 00:17:14;;;;;;;42.10;28.42;;;-1.60;99.90;;;;;;5044942;28;20225;-78
2024/01/12 00:19:43;;;;;;;41.95;28.27;;;-1.60;99.90;;;;;;5043840;28;20896;-79
2024/01/12 00:22:12;;;;;;;41.85;27.30;;;-1.60;99.90;;;;;;5043502;28;20195;-80
2024/01/12 00:24:40;;;;;;;39.67;27.27;;;-1.60;99.90;;;;;;5039313;28;20225;-77
2024/01/12 00:27:08;;;;;;;41.53;26.52;;;-1.60;99.90;;;;;;5043897;28;20300;-79
2024/01/12 00:29:36;;;;;;;40.10;27.02;;;-1.60;99.90;;;;;;5042850;28;20221;-78
2024/01/12 00:32:06;;;;;;;41.33;27.73;;;-1.70;99.90;;;;;;5045407;28;20201;-80
2024/01/12 00:34:34;;;;;;;47.10;29.08;;;-1.70;99.90;;;;;;5050788;28;20454;-80
2024/01/12 00:37:04;;;;;;;43.33;28.83;;;-1.70;99.90;;;;;;5049543;28;20203;-78
2024/01/12 00:39:33;;;;;;;41.35;26.35;;;-1.70;99.90;;;;;;5054033;28;20198;-77
2024/01/12 00:42:01;;;;;;;46.63;27.60;;;-1.70;99.90;;;;;;5047159;28;20676;-78
2024/01/12 00:44:29;;;;;;;33.92;26.02;;;-1.60;99.90;;;;;;5043741;28;20213;-76
2024/01/12 00:46:57;;;;;;;37.83;25.85;;;-1.60;99.90;;;;;;5042215;28;20285;-76
2024/01/12 00:49:26;;;;;;;38.58;25.45;;;-1.60;99.90;;;;;;5040132;28;20300;-77
2024/01/12 00:51:54;;;;;;;43.05;28.15;;;-1.60;99.90;;;;;;5037182;28;20205;-78
2024/01/12 00:54:26;;;;;;;41.42;27.77;;;-1.60;99.90;;;;;;5038300;28;20227;-78
2024/01/12 00:56:56;;;;;;;46.08;27.95;;;-1.70;99.90;;;;;;5043427;28;20246;-78
2024/01/12 00:59:24;;;;;;;49.72;28.33;;;-1.60;99.90;;;;;;5045560;28;20205;-80
2024/01/12 01:01:56;;;;;;;48.70;29.35;;;-1.60;99.90;;;;;;5044126;28;20221;-79
2024/01/12 01:04:26;;;;;;;43.05;28.80;;;-1.70;99.90;;;;;;5047785;28;20263;-81
2024/01/12 01:06:55;;;;;;;43.58;27.30;;;-1.80;99.90;;;;;;5055135;28;20216;-77
2024/01/12 01:09:25;;;;;;;58.78;31.30;;;-1.70;99.90;;;;;;5048783;28;20284;-81
2024/01/12 01:11:53;;;;;;;40.03;27.95;;;-1.70;99.90;;;;;;5043693;28;20202;-80
2024/01/12 01:14:24;;;;;;;42.05;25.33;;;-1.80;99.90;;;;;;5050507;28;20229;-79
2024/01/12 01:16:54;;;;;;;50.22;30.50;;;-1.90;99.90;;;;;;5052097;28;20199;-81
2024/01/12 01:19:23;;;;;;;62.10;35.10;;;-1.90;99.90;;;;;;5042706;28;20291;-81
2024/01/12 01:21:51;;;;;;;48.65;30.67;;;-1.90;99.90;;;;;;5050818;28;20244;-79
2024/01/12 01:24:20;;;;;;;48.15;30.75;;;-1.80;99.90;;;;;;5045827;28;20264;-78
2024/01/12 01:26:49;;;;;;;45.13;29.80;;;-1.80;99.90;;;;;;5042759;28;20210;-79
2024/01/12 01:29:18;;;;;;;54.05;32.30;;;-1.60;99.90;;;;;;5042691;28;20638;-79
2024/01/12 01:31:46;;;;;;;41.67;29.80;;;-1.60;99.90;;;;;;5038658;28;20192;-78
2024/01/12 01:34:14;;;;;;;47.55;29.45;;;-1.60;99.90;;;;;;5039217;28;20222;-79
2024/01/12 01:36:43;;;;;;;40.40;29.45;;;-1.60;99.90;;;;;;5056704;28;20193;-81
2024/01/12 01:39:11;;;;;;;48.40;30.55;;;-1.70;99.90;;;;;;5055845;28;20199;-81
2024/01/12 01:41:39;;;;;;;41.35;26.85;;;-1.80;99.90;;;;;;5054910;28;20217;-83
2024/01/12 01:44:09;;;;;;;43.38;27.58;;;-1.80;99.90;;;;;;5053213;28;20234;-78
2024/01/12 01:46:37;;;;;;;48.20;29.88;;;-1.80;99.90;;;;;;5046832;28;20555;-81
2024/01/12 01:49:06;;;;;;;45.20;27.95;;;-1.70;99.90;;;;;;5047651;28;20206;-78
2024/01/12 01:51:34;;;;;;;42.60;27.02;;;-1.70;99.90;;;;;;5049668;28;20202;-80
2024/01/12 01:54:03;;;;;;;41.33;28.13;;;-1.80;99.90;;;;;;5040541;28;20447;-77
2024/01/12 01:56:31;;;;;;;43.42;27.35;;;-1.90;99.90;;;;;;5050943;28;20201;-79
2024/01/12 01:59:00;;;;;;;41.72;27.42;;;-1.90;99.90;;;;;;5050567;28;20216;-83
2024/01/12 02:01:29;;;;;;;40.97;27.10;;;-2.00;99.90;;;;;;5045047;28;20228;-81
2024/01/12 02:03:58;;;;;;;42.88;27.05;;;-2.00;99.90;;;;;;5050459;28;20522;-80
2024/01/12 02:06:27;;;;;;;38.25;25.05;;;-2.00;99.90;;;;;;5057886;28;20216;-81
2024/01/12 02:08:56;;;;;;;36.58;26.63;;;-1.90;99.90;;;;;;5049700;28;20624;-82
2024/01/12 02:11:24;;;;;;;37.42;26.20;;;-2.00;99.90;;;;;;5050461;28;20187;-82
2024/01/12 02:13:53;;;;;;;41.75;25.80;;;-2.00;99.90;;;;;;5059049;28;20213;-80
2024/01/12 02:16:21;;;;;;;38.90;25.08;;;-2.00;99.90;;;;;;5060281;28;20194;-80
2024/01/12 02:18:51;;;;;;;40.35;26.52;;;-2.10;99.90;;;;;;5059916;28;20197;-81
2024/01/12 02:21:20;;;;;;;41.28;24.73;;;-2.10;99.90;;;;;;5059125;28;20232;-82
2024/01/12 02:23:49;;;;;;;35.55;24.67;;;-2.10;99.90;;;;;;5058161;28;20223;-80
2024/01/12 02:26:17;;;;;;;34.92;22.92;;;-2.10;99.90;;;;;;5060617;28;20271;-82
2024/01/12 02:28:46;;;;;;;34.65;25.08;;;-2.10;99.90;;;;;;5053474;28;20296;-80
2024/01/12 02:31:15;;;;;;;33.30;24.30;;;-2.10;99.90;;;;;;5052535;28;20557;-79
2024/01/12 02:33:43;;;;;;;37.00;23.95;;;-2.10;99.90;;;;;;5062373;28;20228;-80
2024/01/12 02:36:12;;;;;;;37.75;24.40;;;-2.10;99.90;;;;;;5063130;28;20641;-80
2024/01/12 02:38:41;;;;;;;36.15;25.05;;;-2.10;99.90;;;;;;5062250;28;20678;-81
2024/01/12 02:41:10;;;;;;;38.80;25.27;;;-2.10;99.90;;;;;;5060409;28;20209;-82
2024/01/12 02:43:38;;;;;;;36.75;25.85;;;-2.20;99.90;;;;;;5059998;28;20222;-81
2024/01/12 02:46:07;;;;;;;36.03;25.55;;;-2.20;99.90;;;;;;5059947;28;20574;-82
2024/01/12 02:48:35;;;;;;;42.67;28.50;;;-2.20;99.90;;;;;;5063138;28;20197;-81
2024/01/12 02:51:03;;;;;;;39.33;26.02;;;-2.20;99.90;;;;;;5056304;28;20608;-82
2024/01/12 02:53:32;;;;;;;41.72;26.35;;;-2.20;99.90;;;;;;5049732;28;20213;-79
2024/01/12 02:56:02;;;;;;;40.42;25.20;;;-2.10;99.90;;;;;;5056578;28;20199;-80
2024/01/12 02:58:30;;;;;;;33.58;25.65;;;-2.00;99.90;;;;;;5043750;28;20228;-79
2024/01/12 03:00:59;;;;;;;37.17;24.92;;;-2.10;99.90;;;;;;5038098;28;20209;-78
2024/01/12 03:03:28;;;;;;;40.08;24.95;;;-2.10;99.90;;;;;;5051619;28;20226;-79
2024/01/12 03:05:56;;;;;;;40.47;28.30;;;-2.10;99.90;;;;;;5054244;28;20310;-79
2024/01/12 03:08:24;;;;;;;39.92;24.95;;;-2.10;99.90;;;;;;5051723;28;20725;-79
2024/01/12 03:10:53;;;;;;;39.95;26.75;;;-2.20;99.90;;;;;;5039800;28;20202;-78
2024/01/12 03:13:22;;;;;;;38.90;23.95;;;-2.30;99.90;;;;;;5046971;28;20758;-78
2024/01/12 03:15:50;;;;;;;39.78;25.65;;;-2.30;99.90;;;;;;5047989;28;20313;-79
2024/01/12 03:18:19;;;;;;;36.85;25.42;;;-2.30;99.90;;;;;;5046939;28;20221;-80
2024/01/12 03:20:47;;;;;;;39.20;25.70;;;-2.30;99.90;;;;;;5048463;28;20220;-80
2024/01/12 03:23:15;;;;;;;35.42;24.02;;;-2.20;99.90;;;;;;5056222;28;20633;-80
2024/01/12 03:25:44;;;;;;;36.85;25.58;;;-2.20;99.90;;;;;;5068165;28;20651;-80
2024/01/12 03:28:12;;;;;;;36.70;25.42;;;-2.20;99.90;;;;;;5050516;28;20202;-80
2024/01/12 03:30:41;;;;;;;36.28;24.50;;;-2.30;99.90;;;;;;5046131;28;20221;-79
2024/01/12 03:33:10;;;;;;;39.65;25.67;;;-2.30;99.90;;;;;;5049817;28;20223;-78
2024/01/12 03:35:38;;;;;;;32.35;24.10;;;-2.40;99.90;;;;;;5050010;28;21407;-78
2024/01/12 03:38:06;;;;;;;36.97;24.20;;;-2.40;99.90;;;;;;5042906;28;20200;-78
2024/01/12 03:40:34;;;;;;;38.08;24.92;;;-2.40;99.90;;;;;;5045029;28;20548;-79
2024/01/12 03:43:03;;;;;;;37.67;24.38;;;-2.40;99.90;;;;;;5045309;28;20226;-80
2024/01/12 03:45:31;;;;;;;40.03;24.83;;;-2.40;99.90;;;;;;5046856;28;20208;-78
2024/01/12 03:48:01;;;;;;;34.83;23.40;;;-2.40;99.90;;;;;;5034584;28;20225;-76
2024/01/12 03:50:29;;;;;;;34.47;23.45;;;-2.30;99.90;;;;;;5042670;28;20283;-79
2024/01/12 03:52:58;;;;;;;31.27;23.60;;;-2.30;99.90;;;;;;5040557;28;21012;-79
2024/01/12 03:55:26;;;;;;;36.03;24.38;;;-2.40;99.90;;;;;;5049525;28;20556;-78
2024/01/12 03:57:55;;;;;;;38.30;23.88;;;-2.40;99.90;;;;;;5047519;28;20208;-78
2024/01/12 04:00:23;;;;;;;36.90;23.77;;;-2.40;99.90;;;;;;5047451;28;22312;-79
2024/01/12 04:02:51;;;;;;;37.60;23.08;;;-2.40;99.90;;;;;;5043351;28;20934;-79
2024/01/12 04:05:21;;;;;;;35.58;23.75;;;-2.50;99.90;;;;;;5048246;28;20206;-80
2024/01/12 04:07:49;;;;;;;34.95;23.50;;;-2.50;99.90;;;;;;5046200;28;20609;-80
2024/01/12 04:10:18;;;;;;;40.63;24.30;;;-2.50;99.90;;;;;;5044190;28;20281;-79
2024/01/12 04:12:46;;;;;;;35.53;23.13;;;-2.50;99.90;;;;;;5046634;28;20197;-78
2024/01/12 04:15:14;;;;;;;29.98;20.48;;;-2.50;99.90;;;;;;5047043;28;20202;-79
2024/01/12 04:17:42;;;;;;;38.67;23.42;;;-2.50;99.90;;;;;;5055985;28;20213;-79
2024/01/12 04:20:12;;;;;;;38.25;23.13;;;-2.50;99.90;;;;;;5043836;28;20292;-78
2024/01/12 04:22:41;;;;;;;38.53;23.13;;;-2.50;99.90;;;;;;5046511;28;20216;-79
2024/01/12 04:25:10;;;;;;;37.05;21.10;;;-2.50;99.90;;;;;;5043671;28;20197;-78
2024/01/12 04:27:38;;;;;;;31.58;22.60;;;-2.50;99.90;;;;;;5048394;28;20292;-79
2024/01/12 04:30:09;;;;;;;37.55;23.17;;;-2.50;99.90;;;;;;5040897;28;20208;-80
2024/01/12 04:32:37;;;;;;;33.70;21.45;;;-2.60;99.90;;;;;;5049689;28;20197;-79
2024/01/12 04:35:06;;;;;;;34.42;22.10;;;-2.50;99.90;;;;;;5047302;28;20821;-78
2024/01/12 04:37:35;;;;;;;30.17;22.63;;;-2.50;99.90;;;;;;5050367;28;20193;-80
2024/01/12 04:40:05;;;;;;;31.17;20.23;;;-2.50;99.90;;;;;;5054888;28;20207;-78
2024/01/12 04:42:34;;;;;;;38.65;22.23;;;-2.50;99.90;;;;;;5051291;28;20772;-80
2024/01/12 04:45:02;;;;;;;31.52;21.90;;;-2.40;99.90;;;;;;5051407;28;20304;-79
2024/01/12 04:47:32;;;;;;;30.65;22.38;;;-2.40;99.90;;;;;;5049189;28;20229;-80
2024/01/12 04:50:00;;;;;;;33.00;21.95;;;-2.40;99.90;;;;;;5050855;28;20351;-80
2024/01/12 04:52:28;;;;;;;35.03;21.42;;;-2.50;99.90;;;;;;5046986;28;20198;-81
2024/01/12 04:54:57;;;;;;;31.88;20.83;;;-2.50;99.90;;;;;;5048248;28;20250;-80
2024/01/12 04:57:26;;;;;;;36.58;25.33;;;-2.50;99.90;;;;;;5040985;28;20448;-80
2024/01/12 04:59:54;;;;;;;38.70;22.55;;;-2.50;99.90;;;;;;5041320;28;20447;-78
2024/01/12 05:02:23;;;;;;;32.33;23.02;;;-2.50;99.90;;;;;;5033797;28;20275;-79
2024/01/12 05:04:51;;;;;;;35.63;21.55;;;-2.50;99.90;;;;;;5049412;28;20300;-79
2024/01/12 05:07:19;;;;;;;29.92;21.65;;;-2.50;99.90;;;;;;5049192;28;20197;-79
2024/01/12 05:09:47;;;;;;;33.00;20.20;;;-2.60;99.90;;;;;;5036280;28;20657;-77
2024/01/12 05:12:16;;;;;;;31.40;20.30;;;-2.60;99.90;;;;;;5037229;28;20687;-79
2024/01/12 05:14:45;;;;;;;30.95;19.33;;;-2.60;99.90;;;;;;5050843;28;20225;-78
2024/01/12 05:17:15;;;;;;;31.63;21.65;;;-2.60;99.90;;;;;;5039923;28;20198;-78
2024/01/12 05:19:43;;;;;;;34.75;19.95;;;-2.70;99.90;;;;;;5038445;28;20202;-80
2024/01/12 05:22:13;;;;;;;37.42;22.95;;;-2.70;99.90;;;;;;5036941;28;20205;-79
2024/01/12 05:24:41;;;;;;;28.92;20.70;;;-2.70;99.90;;;;;;5039412;28;20687;-78
2024/01/12 05:27:09;;;;;;;26.92;19.27;;;-2.80;99.90;;;;;;5035558;28;20209;-78
2024/01/12 05:29:38;;;;;;;28.25;19.13;;;-2.80;99.90;;;;;;5040253;28;20201;-79
2024/01/12 05:32:08;;;;;;;34.55;20.63;;;-2.80;99.90;;;;;;5037186;28;20201;-78
2024/01/12 05:34:35;;;;;;;27.40;18.73;;;-2.80;99.90;;;;;;5050163;28;20766;-81
2024/01/12 05:37:04;;;;;;;26.55;19.25;;;-2.80;99.90;;;;;;5040040;28;20293;-77
2024/01/12 05:39:32;;;;;;;32.60;20.77;;;-2.80;99.90;;;;;;5045169;28;20229;-76
2024/01/12 05:42:00;;;;;;;27.35;18.75;;;-2.80;99.90;;;;;;5038835;28;20229;-75
2024/01/12 05:44:29;;;;;;;32.20;20.70;;;-2.80;99.90;;;;;;5057868;28;20225;-76
2024/01/12 05:46:57;;;;;;;27.90;18.90;;;-2.70;99.90;;;;;;5034190;28;20280;-75
2024/01/12 05:49:27;;;;;;;24.48;18.85;;;-2.70;99.90;;;;;;5049161;28;20205;-76
2024/01/12 05:51:56;;;;;;;34.83;20.55;;;-2.70;99.90;;;;;;5038671;28;20370;-75
2024/01/12 05:54:24;;;;;;;38.65;22.73;;;-2.70;99.90;;;;;;5036852;28;20222;-75
2024/01/12 05:56:53;;;;;;;36.30;23.13;;;-2.70;99.90;;;;;;5049352;28;20217;-76
2024/01/12 05:59:21;;;;;;;34.47;22.38;;;-2.50;99.90;;;;;;5044105;28;20253;-76
2024/01/12 06:01:50;;;;;;;34.08;21.48;;;-2.50;99.90;;;;;;5037734;28;20197;-77
2024/01/12 06:04:18;;;;;;;37.78;22.50;;;-2.50;99.90;;;;;;5046881;28;20303;-76
2024/01/12 06:06:48;;;;;;;42.17;23.98;;;-2.50;99.90;;;;;;5037411;28;20206;-77
2024/01/12 06:09:17;;;;;;;33.15;23.27;;;-2.50;99.90;;;;;;5037120;28;20232;-77
2024/01/12 06:11:46;;;;;;;42.00;23.92;;;-2.50;99.90;;;;;;5038807;28;20214;-78
2024/01/12 06:14:16;;;;;;;33.17;22.67;;;-2.50;99.90;;;;;;5037492;28;20214;-75
2024/01/12 06:16:44;;;;;;;34.92;22.35;;;-2.50;99.90;;;;;;5043203;28;20296;-76
2024/01/12 06:19:13;;;;;;;34.17;22.30;;;-2.60;99.90;;;;;;5041393;28;20193;-76
2024/01/12 06:21:41;;;;;;;30.83;22.85;;;-2.60;99.90;;;;;;5033191;28;20243;-75
2024/01/12 06:24:11;;;;;;;31.58;21.42;;;-2.60;99.90;;;;;;5039637;28;20232;-78
2024/01/12 06:26:42;;;;;;;37.15;22.50;;;-2.60;99.30;;;;;;5053612;28;20213;-79
2024/01/12 06:29:10;;;;;;;38.25;25.60;;;-2.60;97.60;;;;;;5046605;28;20667;-78
2024/01/12 06:31:39;;;;;;;41.67;24.90;;;-2.60;99.80;;;;;;5046572;28;20189;-76
2024/01/12 06:34:07;;;;;;;43.45;24.45;;;-2.60;99.90;;;;;;5043259;28;20217;-75
2024/01/12 06:36:35;;;;;;;37.75;24.13;;;-2.60;99.90;;;;;;5054613;28;20340;-80
2024/01/12 06:39:05;;;;;;;34.60;23.60;;;-2.60;99.90;;;;;;5052122;28;20341;-77
2024/01/12 06:41:35;;;;;;;38.63;23.55;;;-2.50;99.90;;;;;;5052806;28;20206;-76
2024/01/12 06:44:03;;;;;;;34.50;23.08;;;-2.50;99.90;;;;;;5054350;28;20214;-75
2024/01/12 06:46:31;;;;;;;38.00;23.33;;;-2.60;98.20;;;;;;5052128;28;20227;-75
2024/01/12 06:48:59;;;;;;;37.97;24.08;;;-2.60;97.30;;;;;;5037821;28;20316;-75
2024/01/12 06:51:28;;;;;;;36.92;24.48;;;-2.70;97.40;;;;;;5043215;28;20288;-78
2024/01/12 06:53:56;;;;;;;35.35;24.15;;;-2.60;99.20;;;;;;5041679;28;20210;-76
2024/01/12 06:56:24;;;;;;;32.90;22.30;;;-2.70;96.70;;;;;;5054857;28;20197;-77
2024/01/12 06:58:54;;;;;;;34.65;22.50;;;-2.70;98.10;;;;;;5052954;28;20297;-77
2024/01/12 07:01:22;;;;;;;34.80;23.63;;;-2.70;95.80;;;;;;5048593;28;20869;-77
2024/01/12 07:03:52;;;;;;;36.97;22.73;;;-2.80;93.70;;;;;;5049765;28;20296;-78
2024/01/12 07:06:20;;;;;;;33.83;23.60;;;-2.80;96.10;;;;;;5045333;28;20220;-77
2024/01/12 07:08:48;;;;;;;31.63;23.25;;;-2.80;95.50;;;;;;5050395;28;20200;-76
2024/01/12 07:11:17;;;;;;;41.85;22.80;;;-2.80;97.10;;;;;;5051691;28;20210;-75
2024/01/12 07:13:45;;;;;;;35.70;24.80;;;-2.80;99.30;;;;;;5054050;28;20213;-78
2024/01/12 07:16:15;;;;;;;39.80;27.17;;;-2.80;99.90;;;;;;5055794;28;20204;-76
2024/01/12 07:18:43;;;;;;;40.13;23.67;;;-2.80;99.90;;;;;;5054322;28;20204;-79
2024/01/12 07:21:11;;;;;;;42.15;24.08;;;-2.60;99.90;;;;;;5055097;28;20204;-76
2024/01/12 07:23:40;;;;;;;36.65;23.05;;;-2.60;99.90;;;;;;5054425;28;20686;-78
2024/01/12 07:26:08;;;;;;;34.42;23.77;;;-2.60;99.90;;;;;;5048389;28;20206;-77
2024/01/12 07:28:36;;;;;;;33.03;22.73;;;-2.50;99.90;;;;;;5054651;28;20311;-76
2024/01/12 07:31:05;;;;;;;46.85;24.55;;;-2.60;99.90;;;;;;5039874;28;20739;-78
2024/01/12 07:33:35;;;;;;;41.33;23.92;;;-2.60;97.10;;;;;;5043031;28;20225;-77
2024/01/12 07:36:04;;;;;;;34.88;22.50;;;-2.60;93.00;;;;;;5039571;28;20226;-79
2024/01/12 07:38:32;;;;;;;37.50;24.55;;;-2.60;93.50;;;;;;5046700;28;20197;-78
2024/01/12 07:41:00;;;;;;;38.58;24.50;;;-2.80;94.40;;;;;;5045347;28;20396;-78
2024/01/12 07:43:30;;;;;;;32.42;23.60;;;-2.80;97.00;;;;;;5044219;28;21682;-78
2024/01/12 07:45:59;;;;;;;37.05;24.35;;;-2.80;97.50;;;;;;5038756;28;20206;-77
2024/01/12 07:48:27;;;;;;;33.25;22.60;;;-2.70;97.30;;;;;;5040946;28;20301;-77
2024/01/12 07:50:57;;;;;;;30.60;21.58;;;-2.70;97.10;;;;;;5038961;28;20202;-78
2024/01/12 07:53:25;;;;;;;42.03;23.38;;;-2.70;96.90;;;;;;5033927;28;20216;-78
2024/01/12 07:55:54;;;;;;;37.67;23.80;;;-2.70;96.10;;;;;;5035017;28;20211;-77
2024/01/12 07:58:22;;;;;;;33.42;23.88;;;-2.70;96.40;;;;;;5049231;28;20243;-82
2024/01/12 08:00:50;;;;;;;34.28;22.92;;;-2.80;96.40;;;;;;5032955;28;20233;-79
2024/01/12 08:03:18;;;;;;;34.28;24.30;;;-2.70;98.50;;;;;;5048455;28;20213;-80
2024/01/12 08:05:47;;;;;;;34.47;23.65;;;-2.70;99.90;;;;;;5041450;28;20229;-77
2024/01/12 08:08:17;;;;;;;35.90;23.55;;;-2.60;99.90;;;;;;5042590;28;20319;-74
2024/01/12 08:10:46;;;;;;;41.13;27.98;;;-2.50;99.90;;;;;;5041620;28;20426;-74
2024/01/12 08:13:15;;;;;;;48.28;26.02;;;-2.40;99.90;;;;;;5045029;28;20241;-78
2024/01/12 08:15:46;;;;;;;46.28;29.45;;;-2.20;99.90;;;;;;5038277;28;20211;-76
2024/01/12 08:18:14;;;;;;;57.22;32.53;;;-2.00;99.90;;;;;;5045533;28;20215;-75
2024/01/12 08:20:43;;;;;;;71.05;37.55;;;-1.90;99.90;;;;;;5037202;28;20209;-79
2024/01/12 08:23:11;;;;;;;85.30;44.22;;;-1.80;99.90;;;;;;5042973;28;20891;-77
2024/01/12 08:25:41;;;;;;;65.50;38.35;;;-1.80;99.90;;;;;;5045674;28;20690;-78
2024/01/12 08:28:09;;;;;;;62.08;34.72;;;-1.70;99.70;;;;;;5034565;28;20200;-74
2024/01/12 08:30:38;;;;;;;66.40;37.03;;;-1.70;99.90;;;;;;5037450;28;20206;-77
2024/01/12 08:33:06;;;;;;;63.92;33.55;;;-1.50;99.90;;;;;;5037826;28;20225;-77
2024/01/12 08:35:35;;;;;;;47.85;28.50;;;-1.40;99.90;;;;;;5052214;28;20193;-75
2024/01/12 08:38:04;;;;;;;39.83;25.40;;;-1.30;99.90;;;;;;5053388;28;20233;-76
2024/01/12 08:40:32;;;;;;;39.60;24.55;;;-1.30;99.90;;;;;;5053814;28;20194;-77
2024/01/12 08:43:02;;;;;;;43.65;28.00;;;-1.10;99.90;;;;;;5051047;28;20214;-77
2024/01/12 08:45:30;;;;;;;42.33;24.77;;;-1.00;99.90;;;;;;5048576;28;20217;-76
2024/01/12 08:47:59;;;;;;;39.30;23.73;;;-0.80;99.90;;;;;;5042460;28;20702;-77
2024/01/12 08:50:28;;;;;;;33.13;22.02;;;-0.70;99.90;;;;;;5052023;28;20201;-74
2024/01/12 08:52:56;;;;;;;27.55;21.33;;;-0.60;99.90;;;;;;5050970;28;20212;-76
2024/01/12 08:55:25;;;;;;;35.53;23.20;;;-0.50;99.90;;;;;;5050808;28;20287;-77
2024/01/12 08:57:53;;;;;;;39.65;26.75;;;-0.50;99.90;;;;;;5047374;28;20457;-78
2024/01/12 09:00:23;;;;;;;36.22;23.80;;;-0.50;99.90;;;;;;5045507;28;20215;-77
2024/01/12 09:02:52;;;;;;;35.45;22.23;;;-0.30;99.90;;;;;;5047860;28;22350;-75
2024/01/12 09:05:22;;;;;;;33.55;23.05;;;-0.20;99.90;;;;;;5052937;28;20213;-77
2024/01/12 09:07:51;;;;;;;35.80;23.48;;;-0.20;97.70;;;;;;5050698;28;20198;-77
2024/01/12 09:10:19;;;;;;;37.45;23.55;;;-0.20;96.60;;;;;;5054706;28;20272;-81
2024/01/12 09:12:48;;;;;;;31.23;19.67;;;-0.10;97.00;;;;;;5056556;28;20193;-79
2024/01/12 09:15:17;;;;;;;34.33;22.08;;;-0.10;98.00;;;;;;5061682;28;20650;-81
2024/01/12 09:17:47;;;;;;;31.75;21.42;;;-0.10;99.90;;;;;;5051819;28;20206;-77
2024/01/12 09:20:17;;;;;;;30.67;20.75;;;-0.10;99.90;;;;;;5051452;28;20209;-78
2024/01/12 09:22:46;;;;;;;32.35;23.55;;;0.10;99.90;;;;;;5049243;28;20209;-76
2024/01/12 09:25:14;;;;;;;32.60;22.42;;;0.10;99.90;;;;;;5050722;28;20691;-77
2024/01/12 09:27:43;;;;;;;33.72;21.60;;;0.20;99.90;;;;;;5052903;28;20327;-78
2024/01/12 09:30:13;;;;;;;31.67;21.65;;;0.10;99.90;;;;;;5050471;28;20193;-76
2024/01/12 09:32:42;;;;;;;35.28;23.25;;;0.10;99.90;;;;;;5050144;28;20671;-75
2024/01/12 09:35:12;;;;;;;30.65;22.23;;;0.20;99.90;;;;;;5049443;28;20203;-76
2024/01/12 09:37:40;;;;;;;35.17;23.33;;;0.40;99.90;;;;;;5052302;28;20227;-77
2024/01/12 09:40:10;;;;;;;34.25;22.23;;;0.50;99.90;;;;;;5048342;28;20200;-77
2024/01/12 09:42:43;;;;;;;34.15;23.77;;;0.50;99.90;;;;;;5051645;28;20197;-78
2024/01/12 09:45:14;;;;;;;38.25;21.77;;;0.80;99.90;;;;;;5053388;28;20220;-75
2024/01/12 09:47:51;;;;;;;32.35;22.17;;;1.10;99.90;;;;;;5051833;28;20208;-76
2024/01/12 09:50:22;;;;;;;37.92;22.33;;;1.70;99.90;;;;;;5047336;28;20226;-76
2024/01/12 09:52:52;;;;;;;33.75;21.73;;;1.90;99.90;;;;;;5053846;28;20205;-76
2024/01/12 09:55:20;;;;;;;33.92;22.42;;;2.30;99.90;;;;;;5055496;28;20631;-76
2024/01/12 09:57:49;;;;;;;32.92;22.75;;;2.80;99.90;;;;;;5057048;28;20212;-76
2024/01/12 10:00:23;;;;;;;41.75;26.17;;;3.10;94.20;;;;;;5053153;28;20251;-78
2024/01/12 10:02:58;;;;;;;35.25;24.00;;;3.40;93.80;;;;;;5054218;28;20579;-78
2024/01/12 10:05:28;;;;;;;38.13;24.30;;;3.90;93.40;;;;;;5057463;28;20219;-78
2024/01/12 10:07:57;;;;;;;33.22;23.42;;;4.10;90.20;;;;;;5053052;28;20217;-77
2024/01/12 10:10:25;;;;;;;35.53;21.65;;;4.40;90.90;;;;;;5056781;28;20280;-78
2024/01/12 10:12:56;;;;;;;35.10;22.83;;;4.70;90.00;;;;;;5056465;28;20270;-77
2024/01/12 10:15:26;;;;;;;31.43;21.67;;;5.20;84.70;;;;;;5054650;28;20209;-80
2024/01/12 10:17:55;;;;;;;33.57;22.10;;;5.60;96.40;;;;;;5048658;28;20456;-77
2024/01/12 10:20:23;;;;;;;30.83;23.20;;;6.20;81.20;;;;;;5051589;28;20452;-78
2024/01/12 10:23:03;;;;;;;32.13;23.33;;;6.70;76.80;;;;;;5056473;28;20462;-76
2024/01/12 10:25:32;;;;;;;31.60;24.33;;;7.40;79.00;;;;;;5048621;28;20486;-77
2024/01/12 10:28:00;;;;;;;35.20;22.43;;;8.00;76.90;;;;;;5056621;28;20470;-76
2024/01/12 10:30:32;;;;;;;31.50;22.00;;;8.70;73.90;;;;;;5055705;28;20512;-78
2024/01/12 10:33:02;;;;;;;35.37;24.57;;;9.40;70.90;;;;;;5053960;28;20459;-76
2024/01/12 10:35:31;;;;;;;35.30;24.23;;;10.20;73.00;;;;;;5052703;28;20446;-78
2024/01/12 10:38:05;;;;;;;36.27;25.00;;;10.70;70.70;;;;;;5051702;28;20458;-77
2024/01/12 10:40:35;;;;;;;35.23;25.67;;;11.30;72.90;;;;;;5057509;28;20538;-78
2024/01/12 10:43:05;;;;;;;33.43;24.00;;;11.50;69.30;;;;;;5050138;28;20452;-79
2024/01/12 10:45:37;;;;;;;33.70;24.80;;;12.00;70.80;;;;;;5054595;28;20467;-77
2024/01/12 10:48:12;;;;;;;35.03;24.03;;;12.40;73.50;;;;;;5052341;28;20974;-78
2024/01/12 10:50:43;;;;;;;32.80;23.60;;;12.90;76.30;;;;;;5051842;28;20520;-77
2024/01/12 10:53:21;;;;;;;41.10;25.47;;;12.60;71.60;;;;;;5056128;28;20466;-79
2024/01/12 10:55:58;;;;;;;27.80;22.80;;;12.90;89.70;;;;;;5056236;28;20452;-78
2024/01/12 10:58:28;;;;;;;34.90;25.53;;;12.60;66.30;;;;;;5045673;28;20449;-77
2024/01/12 11:00:57;;;;;;;32.87;25.60;;;11.40;49.90;;;;;;5048870;28;20467;-77
2024/01/12 11:03:27;;;;;;;34.67;24.03;;;11.10;47.80;;;;;;5054844;28;20460;-79
2024/01/12 11:05:57;;;;;;;32.50;25.50;;;10.30;40.40;;;;;;5048735;28;20483;-79
2024/01/12 11:08:29;;;;;;;29.93;22.37;;;9.20;30.30;;;;;;5058200;28;20440;-78
2024/01/12 11:11:00;;;;;;;34.40;23.47;;;8.30;23.50;;;;;;5052747;28;20550;-78
2024/01/12 11:13:29;;;;;;;32.90;22.90;;;7.90;21.00;;;;;;5052450;28;20482;-77
2024/01/12 11:15:59;;;;;;;31.70;23.03;;;7.70;21.10;;;;;;5049762;28;20452;-77
2024/01/12 11:18:28;;;;;;;33.13;24.50;;;7.70;23.40;;;;;;5052230;28;20455;-76
2024/01/12 11:21:02;;;;;;;33.33;24.00;;;7.70;23.10;;;;;;5053115;28;20467;-77
2024/01/12 11:23:40;;;;;;;36.10;23.70;;;7.60;21.70;;;;;;5046665;28;20578;-81
2024/01/12 11:26:10;;;;;;;37.40;24.60;;;7.60;23.50;;;;;;5040975;28;20479;-78
2024/01/12 11:28:38;;;;;;;35.30;24.10;;;7.80;25.70;;;;;;5042573;28;20470;-77
2024/01/12 11:31:07;;;;;;;33.43;23.57;;;8.30;28.70;;;;;;5044101;28;20468;-78
2024/01/12 11:33:41;;;;;;;34.10;26.60;;;9.20;35.60;;;;;;5049982;28;20478;-78
2024/01/12 11:36:17;;;;;;;31.70;23.60;;;8.60;29.50;;;;;;5036440;28;20459;-78
2024/01/12 11:38:48;;;;;;;35.90;25.40;;;8.00;25.30;;;;;;5046476;28;20448;-76
2024/01/12 11:41:17;;;;;;;35.60;24.10;;;7.50;21.30;;;;;;5044492;28;20444;-78
2024/01/12 11:43:50;;;;;;;38.83;24.20;;;7.10;18.40;;;;;;5029980;28;20470;-82
2024/01/12 11:46:19;;;;;;;32.40;24.07;;;6.60;14.40;;;;;;5036452;28;20478;-76
2024/01/12 11:48:48;;;;;;;32.13;24.50;;;6.50;15.10;;;;;;5045723;28;20475;-80
2024/01/12 11:51:21;;;;;;;45.23;27.20;;;6.60;17.50;;;;;;5044746;28;20464;-78
2024/01/12 11:53:53;;;;;;;34.47;23.90;;;6.40;17.20;;;;;;5042451;28;20477;-76
2024/01/12 11:56:22;;;;;;;33.07;24.47;;;6.40;16.20;;;;;;5050254;28;21328;-75
2024/01/12 11:58:52;;;;;;;39.97;25.00;;;6.30;16.10;;;;;;5035952;28;20459;-77
2024/01/12 12:01:21;;;;;;;40.90;26.13;;;6.30;16.10;;;;;;5040744;28;20466;-79
2024/01/12 12:03:50;;;;;;;34.60;25.93;;;6.10;25.80;;;;;;5049355;28;20479;-79
2024/01/12 12:06:19;;;;;;;38.77;26.30;;;5.80;13.60;;;;;;5049766;28;20474;-78
2024/01/12 12:08:52;;;;;;;38.93;26.80;;;5.90;13.60;;;;;;5033546;28;20466;-79
2024/01/12 12:11:23;;;;;;;36.03;24.77;;;6.00;15.60;;;;;;5049839;28;20471;-78
2024/01/12 12:13:54;;;;;;;34.00;24.70;;;5.90;15.80;;;;;;5047923;28;20537;-84
2024/01/12 12:16:23;;;;;;;36.63;25.43;;;6.00;16.10;;;;;;5044844;28;20452;-77
2024/01/12 12:18:52;;;;;;;32.38;24.83;;;6.00;28.10;;;;;;5052608;28;20872;-78
2024/01/12 12:21:22;;;;;;;58.60;42.27;;;6.10;19.20;;;;;;5036745;28;20213;-80
2024/01/12 12:23:51;;;;;;;37.47;28.23;;;6.20;19.50;;;;;;5046852;28;20486;-81
2024/01/12 12:26:22;;;;;;;36.33;25.27;;;6.20;18.80;;;;;;5054981;28;20476;-78
2024/01/12 12:28:51;;;;;;;35.93;24.80;;;6.00;17.60;;;;;;5039489;28;20456;-79
2024/01/12 12:31:22;;;;;;;34.03;24.70;;;6.10;18.60;;;;;;5047150;28;20468;-79
2024/01/12 12:33:51;;;;;;;40.53;26.60;;;6.20;20.40;;;;;;5042728;28;20487;-80
2024/01/12 12:36:20;;;;;;;42.03;27.83;;;6.30;21.20;;;;;;5051140;28;20509;-80
2024/01/12 12:38:50;;;;;;;40.53;28.83;;;6.20;21.20;;;;;;5047209;28;20455;-79